Time;durP1;ratioP1;P1;durP2;ratioP2;P2;SDS_P1;SDS_P2;PMS_P1;PMS_P2;Temp;Humidity;BMP_temperature;BMP_pressure;BME280_temperature;BME280_humidity;BME280_pressure;Samples;Min_cycle;Max_cycle;Signal;HPM_P1;HPM_P2
2022/01/02 00:00:19;;;;;;;18.33;8.50;;;;;;;-145.67;100.00;66521.78;5010146;28;20041;-70
2022/01/02 00:02:52;;;;;;;28.35;11.63;;;;;;;-145.67;100.00;66521.78;4989116;28;20108;-70
2022/01/02 00:05:21;;;;;;;24.17;11.35;;;;;;;-145.67;100.00;66521.78;4994535;28;20061;-69
2022/01/02 00:07:59;;;;;;;25.60;12.55;;;;;;;-145.67;100.00;66521.78;4994531;28;20043;-69
2022/01/02 00:10:26;;;;;;;28.08;12.40;;;;;;;-145.67;100.00;66521.78;5000774;28;20033;-70
2022/01/02 00:12:59;;;;;;;29.70;14.13;;;;;;;-145.67;100.00;66521.78;4999101;28;20033;-69
2022/01/02 00:15:26;;;;;;;32.85;12.98;;;;;;;-145.67;100.00;66521.78;5004565;28;20036;-69
2022/01/02 00:18:04;;;;;;;33.15;12.70;;;;;;;-145.67;100.00;66521.78;4994463;28;20064;-69
2022/01/02 00:20:35;;;;;;;34.28;13.25;;;;;;;-145.67;100.00;66521.78;4994391;28;20033;-69
2022/01/02 00:23:07;;;;;;;31.42;13.85;;;;;;;-145.67;100.00;66521.78;5009149;28;20022;-68
2022/01/02 00:25:41;;;;;;;41.73;15.20;;;;;;;-145.67;100.00;66521.78;5003959;28;20032;-69
2022/01/02 00:28:11;;;;;;;36.38;15.23;;;;;;;-145.67;100.00;66521.78;4994664;28;20030;-67
2022/01/02 00:30:39;;;;;;;31.30;14.10;;;;;;;-145.67;100.00;66521.78;4992884;28;20181;-68
2022/01/02 00:33:08;;;;;;;45.75;21.60;;;;;;;-145.67;100.00;66521.78;5009023;28;20099;-70
2022/01/02 00:35:34;;;;;;;39.78;15.10;;;;;;;-145.67;100.00;66521.78;4976585;28;20085;-67
2022/01/02 00:38:00;;;;;;;34.42;13.98;;;;;;;-145.67;100.00;66521.78;4994252;28;20551;-69
2022/01/02 00:40:28;;;;;;;38.65;13.45;;;;;;;-145.67;100.00;66521.78;4992560;28;20041;-68
2022/01/02 00:43:02;;;;;;;37.28;15.05;;;;;;;-145.67;100.00;66521.78;4993975;28;20065;-69
2022/01/02 00:45:41;;;;;;;29.63;11.60;;;;;;;-145.67;100.00;66521.78;4994467;28;20054;-68
2022/01/02 00:48:16;;;;;;;32.83;13.10;;;;;;;-145.67;100.00;66521.78;5009652;28;20405;-69
2022/01/02 00:50:50;;;;;;;27.73;11.43;;;;;;;-145.67;100.00;66521.78;5008202;28;20037;-71
2022/01/02 00:53:17;;;;;;;34.40;14.40;;;;;;;-145.67;100.00;66521.78;4999532;28;20096;-69
2022/01/02 00:55:43;;;;;;;32.05;12.20;;;;;;;-145.67;100.00;66521.78;5008942;28;20138;-68
2022/01/02 00:58:13;;;;;;;30.40;12.18;;;;;;;-145.67;100.00;66521.78;5009071;28;20432;-70
2022/01/02 01:00:45;;;;;;;33.80;12.52;;;;;;;-145.67;100.00;66521.78;5009135;28;20413;-67
2022/01/02 01:03:21;;;;;;;32.67;13.27;;;;;;;-145.67;100.00;66521.78;4998656;28;20498;-70
2022/01/02 01:05:50;;;;;;;39.05;13.48;;;;;;;-145.67;100.00;66521.78;5008970;28;20402;-69
2022/01/02 01:08:18;;;;;;;39.95;12.93;;;;;;;-145.67;100.00;66521.78;4993798;28;20474;-70
2022/01/02 01:10:48;;;;;;;31.98;11.27;;;;;;;-145.67;100.00;66521.78;4994558;28;20520;-69
2022/01/02 01:13:16;;;;;;;35.72;11.07;;;;;;;-145.67;100.00;66521.78;4992205;28;20053;-69
2022/01/02 01:15:44;;;;;;;25.40;11.40;;;;;;;-145.67;100.00;66521.78;5004001;28;20030;-69
2022/01/02 01:18:12;;;;;;;26.38;11.38;;;;;;;-145.67;100.00;66521.78;4993595;28;20107;-68
2022/01/02 01:20:41;;;;;;;31.40;12.38;;;;;;;-145.67;100.00;66521.78;4999643;28;20026;-70
2022/01/02 01:23:07;;;;;;;33.63;11.57;;;;;;;-145.67;100.00;66521.78;4992346;28;20635;-70
2022/01/02 01:25:38;;;;;;;38.05;11.80;;;;;;;-145.67;100.00;66521.78;5003610;28;20041;-70
2022/01/02 01:28:04;;;;;;;36.75;11.45;;;;;;;-145.67;100.00;66521.78;5008927;28;20037;-70
2022/01/02 01:30:29;;;;;;;35.22;12.05;;;;;;;-145.67;100.00;66521.78;4993870;28;21096;-68
2022/01/02 01:32:55;;;;;;;31.98;11.50;;;;;;;-145.67;100.00;66521.78;5009442;28;20167;-70
2022/01/02 01:35:22;;;;;;;32.55;10.40;;;;;;;-145.67;100.00;66521.78;4993848;28;20042;-68
2022/01/02 01:37:50;;;;;;;30.08;10.55;;;;;;;-145.67;100.00;66521.78;4999238;28;20122;-69
2022/01/02 01:40:16;;;;;;;33.42;10.07;;;;;;;-145.67;100.00;66521.78;4993122;28;20037;-69
2022/01/02 01:42:54;;;;;;;35.22;10.27;;;;;;;-145.67;100.00;66521.78;5008030;28;20034;-68
2022/01/02 01:47:56;;;;;;;33.00;10.57;;;;;;;-145.67;100.00;66521.78;4994398;28;20036;-68
2022/01/02 01:50:25;;;;;;;32.85;11.13;;;;;;;-145.67;100.00;66521.78;4991700;28;20038;-69
2022/01/02 01:52:53;;;;;;;29.90;11.00;;;;;;;-145.67;100.00;66521.78;4993649;28;20572;-70
2022/01/02 01:55:19;;;;;;;39.75;10.75;;;;;;;-145.67;100.00;66521.78;4993355;28;20048;-70
2022/01/02 01:57:45;;;;;;;27.80;9.32;;;;;;;-145.67;100.00;66521.78;4994180;28;20638;-69
2022/01/02 02:00:18;;;;;;;33.55;10.13;;;;;;;-145.67;100.00;66521.78;4993142;28;20038;-69
2022/01/02 02:02:46;;;;;;;29.83;11.57;;;;;;;-145.67;100.00;66521.78;4993866;28;20061;-69
2022/01/02 02:05:12;;;;;;;26.45;11.98;;;;;;;-145.67;100.00;66521.78;4993497;28;20040;-70
2022/01/02 02:07:43;;;;;;;34.95;13.05;;;;;;;-145.67;100.00;66521.78;4996966;28;20052;-71
2022/01/02 02:12:42;;;;;;;29.77;10.38;;;;;;;-145.67;100.00;66521.78;5008378;28;20022;-71
2022/01/02 02:15:09;;;;;;;20.13;7.95;;;;;;;-145.67;100.00;66521.78;4994794;28;20103;-70
2022/01/02 02:17:34;;;;;;;22.27;7.70;;;;;;;-145.67;100.00;66521.78;5012219;28;20069;-70
2022/01/02 02:20:12;;;;;;;23.67;9.65;;;;;;;-145.67;100.00;66521.78;4997019;28;20036;-70
2022/01/02 02:22:43;;;;;;;26.70;10.68;;;;;;;-145.67;100.00;66521.78;4996700;28;20034;-71
2022/01/02 02:25:12;;;;;;;26.05;10.20;;;;;;;-145.67;100.00;66521.78;4997146;28;20064;-71
2022/01/02 02:27:46;;;;;;;22.50;9.20;;;;;;;-145.67;100.00;66521.78;5000539;28;20416;-69
2022/01/02 02:30:12;;;;;;;28.65;9.80;;;;;;;-145.67;100.00;66521.78;5011879;28;20041;-70
2022/01/02 02:32:40;;;;;;;27.27;13.57;;;;;;;-145.67;100.00;66521.78;4996686;28;20026;-69
2022/01/02 02:35:06;;;;;;;26.65;12.18;;;;;;;-145.67;100.00;66521.78;5010792;28;20053;-69
2022/01/02 02:37:34;;;;;;;28.92;12.75;;;;;;;-145.67;100.00;66521.78;4996810;28;20149;-69
2022/01/02 02:40:00;;;;;;;31.05;13.77;;;;;;;-145.67;100.00;66521.78;4991123;28;20147;-70
2022/01/02 02:42:38;;;;;;;33.85;11.98;;;;;;;-145.67;100.00;66521.78;5011154;28;20780;-70
2022/01/02 02:51:05;;;;;;;30.80;10.93;;;;;;;-145.67;100.00;66521.78;4995904;28;20033;-70
2022/01/02 02:53:42;;;;;;;28.10;11.52;;;;;;;-145.67;100.00;66521.78;4996217;28;20034;-68
2022/01/02 02:56:30;;;;;;;29.17;12.45;;;;;;;-145.67;100.00;66521.78;4996177;28;20076;-70
2022/01/02 02:58:56;;;;;;;24.65;10.88;;;;;;;-145.67;100.00;66521.78;4996694;28;20556;-70
2022/01/02 03:01:24;;;;;;;33.03;10.20;;;;;;;-145.67;100.00;66521.78;4996578;28;20572;-69
2022/01/02 03:03:50;;;;;;;28.42;10.27;;;;;;;-145.67;100.00;66521.78;4995716;28;20045;-69
2022/01/02 03:06:19;;;;;;;22.85;8.15;;;;;;;-145.67;100.00;66521.78;4996113;28;20026;-69
2022/01/02 03:08:51;;;;;;;22.60;7.57;;;;;;;-145.67;100.00;66521.78;5004209;28;20122;-69
2022/01/02 03:11:21;;;;;;;17.83;6.03;;;;;;;-145.67;100.00;66521.78;4996399;28;20061;-70
2022/01/02 03:13:51;;;;;;;28.58;5.82;;;;;;;-145.67;100.00;66521.78;5010755;28;20036;-70
2022/01/02 03:16:19;;;;;;;24.88;5.53;;;;;;;-145.67;100.00;66521.78;5002693;28;20719;-69
2022/01/02 03:18:47;;;;;;;20.33;5.28;;;;;;;-145.67;100.00;66521.78;4995260;28;20422;-70
2022/01/02 03:21:12;;;;;;;23.02;4.82;;;;;;;-145.67;100.00;66521.78;5011267;28;20037;-70
2022/01/02 03:23:39;;;;;;;16.17;4.57;;;;;;;-145.67;100.00;66521.78;5010608;28;20026;-70
2022/01/02 03:26:05;;;;;;;19.27;5.40;;;;;;;-145.67;100.00;66521.78;4987223;28;20061;-70
2022/01/02 03:28:30;;;;;;;23.00;5.25;;;;;;;-145.67;100.00;66521.78;5010445;28;20064;-70
2022/01/02 03:30:58;;;;;;;25.30;5.25;;;;;;;-145.67;100.00;66521.78;4995888;28;20223;-70
2022/01/02 03:33:23;;;;;;;18.13;5.25;;;;;;;-145.67;100.00;66521.78;4995041;28;20034;-70
2022/01/02 03:35:49;;;;;;;25.55;5.60;;;;;;;-145.67;100.00;66521.78;5010679;28;20029;-68
2022/01/02 03:38:17;;;;;;;22.50;5.35;;;;;;;-145.67;100.00;66521.78;4995211;28;20761;-69
2022/01/02 03:40:45;;;;;;;18.58;4.28;;;;;;;-145.67;100.00;66521.78;4996027;28;20030;-70
2022/01/02 03:43:12;;;;;;;20.83;4.95;;;;;;;-145.67;100.00;66521.78;4995455;28;20516;-70
2022/01/02 03:45:38;;;;;;;29.77;6.22;;;;;;;-145.67;100.00;66521.78;4995876;28;20440;-70
2022/01/02 03:48:04;;;;;;;34.72;6.53;;;;;;;-145.67;100.00;66521.78;4995400;28;20309;-70
2022/01/02 03:50:29;;;;;;;24.98;5.85;;;;;;;-145.67;100.00;66521.78;4995255;28;20125;-70
2022/01/02 03:52:55;;;;;;;37.17;5.82;;;;;;;-145.67;100.00;66521.78;4995225;28;20029;-70
2022/01/02 03:55:23;;;;;;;23.02;6.20;;;;;;;-145.67;100.00;66521.78;4994863;28;20081;-70
2022/01/02 03:57:48;;;;;;;25.23;5.18;;;;;;;-145.67;100.00;66521.78;5001953;28;20041;-69
2022/01/02 04:00:18;;;;;;;28.83;5.70;;;;;;;-145.67;100.00;66521.78;4995037;28;20043;-70
2022/01/02 04:02:44;;;;;;;28.13;5.22;;;;;;;-145.67;100.00;66521.78;4995565;28;20033;-70
2022/01/02 04:05:11;;;;;;;23.60;5.07;;;;;;;-145.67;100.00;66521.78;4994647;28;20124;-70
2022/01/02 04:07:36;;;;;;;23.20;5.40;;;;;;;-145.67;100.00;66521.78;4993637;28;20055;-70
2022/01/02 04:10:13;;;;;;;22.27;4.65;;;;;;;-145.67;100.00;66521.78;5001418;28;20211;-70
2022/01/02 04:12:42;;;;;;;23.58;4.63;;;;;;;-145.67;100.00;66521.78;5004422;28;20056;-67
2022/01/02 04:15:12;;;;;;;26.08;5.55;;;;;;;-145.67;100.00;66521.78;4994923;28;20103;-68
2022/01/02 04:17:38;;;;;;;23.00;5.18;;;;;;;-145.67;100.00;66521.78;4994706;28;20549;-68
2022/01/02 04:20:06;;;;;;;22.40;5.47;;;;;;;-145.67;100.00;66521.78;4994304;28;20131;-69
2022/01/02 04:22:34;;;;;;;23.70;5.47;;;;;;;-145.67;100.00;66521.78;5009002;28;20267;-67
2022/01/02 04:25:00;;;;;;;24.20;6.43;;;;;;;-145.67;100.00;66521.78;4993694;28;22011;-69
2022/01/02 04:27:25;;;;;;;28.20;7.30;;;;;;;-145.67;100.00;66521.78;4994028;28;20030;-69
2022/01/02 04:29:51;;;;;;;40.90;8.57;;;;;;;-145.67;100.00;66521.78;5009161;28;20037;-70
2022/01/02 04:32:17;;;;;;;27.20;7.55;;;;;;;-145.67;100.00;66521.78;4994185;28;20112;-72
2022/01/02 04:34:45;;;;;;;21.38;6.90;;;;;;;-145.67;100.00;66521.78;4994330;28;20052;-73
2022/01/02 04:37:11;;;;;;;27.52;7.57;;;;;;;-145.67;100.00;66521.78;4995031;28;20080;-70
2022/01/02 04:39:42;;;;;;;20.55;6.07;;;;;;;-145.67;100.00;66521.78;5009090;28;20240;-73
2022/01/02 04:42:12;;;;;;;25.75;7.03;;;;;;;-145.67;100.00;66521.78;4994888;28;20552;-71
2022/01/02 04:44:37;;;;;;;19.33;7.20;;;;;;;-145.67;100.00;66521.78;4994506;28;20030;-73
2022/01/02 04:47:03;;;;;;;23.23;7.18;;;;;;;-145.67;100.00;66521.78;4994241;28;20052;-70
2022/01/02 04:49:29;;;;;;;22.08;6.88;;;;;;;-145.67;100.00;66521.78;4992970;28;20029;-72
2022/01/02 04:51:54;;;;;;;25.48;6.50;;;;;;;-145.67;100.00;66521.78;4998316;28;20045;-71
2022/01/02 04:54:21;;;;;;;23.45;7.53;;;;;;;-145.67;100.00;66521.78;4993544;28;20124;-72
2022/01/02 04:56:46;;;;;;;28.42;8.05;;;;;;;-145.67;100.00;66521.78;4994140;28;20036;-72
2022/01/02 04:59:12;;;;;;;26.75;8.50;;;;;;;-145.67;100.00;66521.78;5008994;28;20037;-71
2022/01/02 05:01:37;;;;;;;25.40;8.88;;;;;;;-145.67;100.00;66521.78;5000189;28;20028;-73
2022/01/02 05:04:05;;;;;;;29.95;10.00;;;;;;;-145.67;100.00;66521.78;4994117;28;20416;-73
2022/01/02 05:06:30;;;;;;;23.08;7.55;;;;;;;-145.67;100.00;66521.78;4994840;28;20418;-70
2022/01/02 05:08:56;;;;;;;28.33;10.20;;;;;;;-145.67;100.00;66521.78;4994129;28;20033;-72
2022/01/02 05:11:21;;;;;;;21.38;8.52;;;;;;;-145.67;100.00;66521.78;5008903;28;20057;-72
2022/01/02 05:13:47;;;;;;;26.42;8.68;;;;;;;-145.67;100.00;66521.78;4994065;28;20034;-71
2022/01/02 05:16:12;;;;;;;28.75;11.38;;;;;;;-145.67;100.00;66521.78;4994193;28;20072;-72
2022/01/02 05:18:38;;;;;;;30.67;11.10;;;;;;;-145.67;100.00;66521.78;4993694;28;20030;-73
2022/01/02 05:21:06;;;;;;;25.13;7.63;;;;;;;-145.67;100.00;66521.78;4994326;28;20574;-73
2022/01/02 05:23:34;;;;;;;25.00;8.45;;;;;;;-145.67;100.00;66521.78;4993816;28;20308;-73
2022/01/02 05:26:05;;;;;;;25.88;9.30;;;;;;;-145.67;100.00;66521.78;4993182;28;20172;-73
2022/01/02 05:28:32;;;;;;;26.10;8.98;;;;;;;-145.67;100.00;66521.78;4999830;28;20033;-73
2022/01/02 05:30:58;;;;;;;23.98;10.23;;;;;;;-145.67;100.00;66521.78;4984415;28;20061;-73
2022/01/02 05:33:26;;;;;;;21.55;8.43;;;;;;;-145.67;100.00;66521.78;4999705;28;20120;-73
2022/01/02 05:35:56;;;;;;;29.13;10.73;;;;;;;-145.67;100.00;66521.78;5008833;28;20031;-73
2022/01/02 05:38:22;;;;;;;26.98;9.52;;;;;;;-145.67;100.00;66521.78;5003453;28;20070;-72
2022/01/02 05:40:50;;;;;;;26.17;10.57;;;;;;;-145.67;100.00;66521.78;4994127;28;20099;-74
2022/01/02 05:43:18;;;;;;;24.20;8.82;;;;;;;-145.67;100.00;66521.78;4990877;28;20334;-73
2022/01/02 05:45:45;;;;;;;28.17;9.93;;;;;;;-145.67;100.00;66521.78;4994035;28;20401;-73
2022/01/02 05:48:11;;;;;;;25.20;9.27;;;;;;;-145.67;100.00;66521.78;4993044;28;20042;-70
2022/01/02 05:50:37;;;;;;;17.95;8.68;;;;;;;-145.67;100.00;66521.78;4993791;28;20036;-71
2022/01/02 05:53:02;;;;;;;23.50;9.57;;;;;;;-145.67;100.00;66521.78;4997729;28;20107;-71
2022/01/02 05:55:30;;;;;;;20.48;8.43;;;;;;;-145.67;100.00;66521.78;4997058;28;20037;-73
2022/01/02 05:57:58;;;;;;;22.92;7.65;;;;;;;-145.67;100.00;66521.78;5012593;28;20044;-72
2022/01/02 06:00:26;;;;;;;24.77;7.53;;;;;;;-145.67;100.00;66521.78;4995630;28;20131;-72
2022/01/02 06:02:53;;;;;;;31.63;9.77;;;;;;;-145.67;100.00;66521.78;4997374;28;20041;-72
2022/01/02 06:05:19;;;;;;;28.88;9.93;;;;;;;-145.67;100.00;66521.78;4997187;28;20632;-72
2022/01/02 06:07:47;;;;;;;25.13;7.75;;;;;;;-145.67;100.00;66521.78;4997777;28;20112;-70
2022/01/02 06:10:12;;;;;;;32.20;7.80;;;;;;;-145.67;100.00;66521.78;4996967;28;20057;-72
2022/01/02 06:12:38;;;;;;;25.20;8.05;;;;;;;-145.67;100.00;66521.78;4996937;28;20152;-72
2022/01/02 06:15:06;;;;;;;26.02;8.30;;;;;;;-145.67;100.00;66521.78;5000915;28;20026;-72
2022/01/02 06:17:34;;;;;;;33.38;9.77;;;;;;;-145.67;100.00;66521.78;4997217;28;20697;-73
2022/01/02 06:20:00;;;;;;;30.13;9.45;;;;;;;-145.67;100.00;66521.78;4997276;28;20239;-72
2022/01/02 06:22:25;;;;;;;22.15;9.13;;;;;;;-145.67;100.00;66521.78;5002609;28;20033;-73
2022/01/02 06:24:51;;;;;;;30.25;9.38;;;;;;;-145.67;100.00;66521.78;4997180;28;20702;-70
2022/01/02 06:27:17;;;;;;;29.58;9.90;;;;;;;-145.67;100.00;66521.78;4996522;28;20037;-72
2022/01/02 06:29:42;;;;;;;22.25;9.32;;;;;;;-145.67;100.00;66521.78;5002712;28;20025;-72
2022/01/02 06:32:08;;;;;;;25.63;10.52;;;;;;;-145.67;100.00;66521.78;4996745;28;20135;-72
2022/01/02 06:34:33;;;;;;;26.70;8.82;;;;;;;-145.67;100.00;66521.78;4996304;28;20044;-73
2022/01/02 06:37:04;;;;;;;26.63;11.38;;;;;;;-145.67;100.00;66521.78;4996510;28;20474;-73
2022/01/02 06:39:29;;;;;;;25.48;11.35;;;;;;;-145.67;100.00;66521.78;5002670;28;20106;-73
2022/01/02 06:41:57;;;;;;;24.70;10.70;;;;;;;-145.67;100.00;66521.78;4996141;28;20081;-72
2022/01/02 06:44:23;;;;;;;25.23;12.88;;;;;;;-145.67;100.00;66521.78;4996482;28;20030;-72
2022/01/02 06:46:48;;;;;;;25.38;11.18;;;;;;;-145.67;100.00;66521.78;4996640;28;20029;-73
2022/01/02 06:49:14;;;;;;;29.10;11.07;;;;;;;-145.67;100.00;66521.78;5005697;28;20033;-72
2022/01/02 06:51:39;;;;;;;28.00;9.85;;;;;;;-145.67;100.00;66521.78;4994052;28;20038;-72
2022/01/02 06:54:05;;;;;;;25.70;11.23;;;;;;;-145.67;100.00;66521.78;4995859;28;20033;-72
2022/01/02 06:56:33;;;;;;;21.70;11.68;;;;;;;-145.67;100.00;66521.78;4996251;28;20069;-72
2022/01/02 06:58:59;;;;;;;24.15;11.43;;;;;;;-145.67;100.00;66521.78;4995629;28;20034;-71
2022/01/02 07:01:24;;;;;;;26.50;14.13;;;;;;;-145.67;100.00;66521.78;4996474;28;20770;-73
2022/01/02 07:03:50;;;;;;;19.30;11.23;;;;;;;-145.67;100.00;66521.78;4995971;28;20056;-72
2022/01/02 07:06:15;;;;;;;20.63;8.55;;;;;;;-145.67;100.00;66521.78;4996478;28;20067;-73
2022/01/02 07:08:43;;;;;;;19.98;5.85;;;;;;;-145.67;100.00;66521.78;4996069;28;20117;-73
2022/01/02 07:11:10;;;;;;;19.70;5.13;;;;;;;-145.67;100.00;66521.78;4995715;28;20083;-72
2022/01/02 07:13:35;;;;;;;22.23;5.72;;;;;;;-145.67;100.00;66521.78;4995687;28;20036;-72
2022/01/02 07:16:01;;;;;;;16.63;6.22;;;;;;;-145.67;100.00;66521.78;4995614;28;20264;-72
2022/01/02 07:18:27;;;;;;;22.23;6.30;;;;;;;-145.67;100.00;66521.78;4995812;28;20040;-71
2022/01/02 07:20:52;;;;;;;19.10;5.95;;;;;;;-145.67;100.00;66521.78;4995795;28;20029;-74
2022/01/02 07:23:18;;;;;;;21.73;6.05;;;;;;;-145.67;100.00;66521.78;4996114;28;20042;-73
2022/01/02 07:25:44;;;;;;;20.77;5.45;;;;;;;-145.67;100.00;66521.78;4995524;28;20034;-73
2022/01/02 07:28:09;;;;;;;16.15;6.03;;;;;;;-145.67;100.00;66521.78;4995845;28;20036;-73
2022/01/02 07:30:37;;;;;;;15.82;5.20;;;;;;;-145.67;100.00;66521.78;4995759;28;20030;-73
2022/01/02 07:33:03;;;;;;;20.10;5.85;;;;;;;-145.67;100.00;66521.78;4996261;28;20466;-71
2022/01/02 07:35:29;;;;;;;16.98;5.68;;;;;;;-145.67;100.00;66521.78;4993757;28;20040;-73
2022/01/02 07:37:55;;;;;;;19.20;5.82;;;;;;;-145.67;100.00;66521.78;4995362;28;20748;-72
2022/01/02 07:40:21;;;;;;;18.67;5.97;;;;;;;-145.67;100.00;66521.78;4995486;28;20072;-71
2022/01/02 07:42:46;;;;;;;30.02;6.88;;;;;;;-145.67;100.00;66521.78;5001151;28;20067;-71
2022/01/02 07:45:14;;;;;;;25.83;6.68;;;;;;;-145.67;100.00;66521.78;4994056;28;20508;-72
2022/01/02 07:47:42;;;;;;;27.88;7.13;;;;;;;-145.67;100.00;66521.78;4995396;28;20152;-72
2022/01/02 07:50:08;;;;;;;25.15;6.80;;;;;;;-145.67;100.00;66521.78;4995391;28;20075;-72
2022/01/02 07:52:33;;;;;;;28.65;6.35;;;;;;;-145.67;100.00;66521.78;4999218;28;20567;-73
2022/01/02 07:54:59;;;;;;;22.92;6.68;;;;;;;-145.67;100.00;66521.78;4995248;28;20046;-73
2022/01/02 07:57:24;;;;;;;19.17;5.95;;;;;;;-145.67;100.00;66521.78;4995636;28;20042;-74
2022/01/02 07:59:50;;;;;;;19.17;6.40;;;;;;;-145.67;100.00;66521.78;4995608;28;20041;-73
2022/01/02 08:02:15;;;;;;;25.33;7.13;;;;;;;-145.67;100.00;66521.78;4994218;28;20048;-73
2022/01/02 08:04:41;;;;;;;30.30;6.75;;;;;;;-145.67;100.00;66521.78;4994835;28;20257;-73
2022/01/02 08:07:06;;;;;;;27.75;7.05;;;;;;;-145.67;100.00;66521.78;4993385;28;20080;-73
2022/01/02 08:09:34;;;;;;;18.90;6.72;;;;;;;-145.67;100.00;66521.78;4987921;28;20128;-73
2022/01/02 08:12:00;;;;;;;21.83;7.28;;;;;;;-145.67;100.00;66521.78;4994076;28;20429;-73
2022/01/02 08:14:25;;;;;;;24.60;7.28;;;;;;;-145.67;100.00;66521.78;4994752;28;20033;-73
2022/01/02 08:16:51;;;;;;;27.17;8.55;;;;;;;-145.67;100.00;66521.78;4995446;28;20030;-73
2022/01/02 08:19:16;;;;;;;21.83;8.00;;;;;;;-145.67;100.00;66521.78;4998902;28;20037;-73
2022/01/02 08:21:44;;;;;;;21.90;7.35;;;;;;;-145.67;100.00;66521.78;4994871;28;20124;-74
2022/01/02 08:24:14;;;;;;;23.63;6.57;;;;;;;-145.67;100.00;66521.78;4995290;28;20037;-73
2022/01/02 08:26:39;;;;;;;24.38;7.40;;;;;;;-145.67;100.00;66521.78;4994761;28;20048;-73
2022/01/02 08:29:05;;;;;;;20.85;6.82;;;;;;;-145.67;100.00;66521.78;4995192;28;20715;-73
2022/01/02 08:31:31;;;;;;;22.00;7.03;;;;;;;-145.67;100.00;66521.78;5009306;28;20037;-73
2022/01/02 08:33:57;;;;;;;28.00;7.18;;;;;;;-145.67;100.00;66521.78;4994772;28;21849;-73
2022/01/02 08:36:22;;;;;;;27.58;6.72;;;;;;;-145.67;100.00;66521.78;5003923;28;20395;-73
2022/01/02 08:38:51;;;;;;;26.95;7.00;;;;;;;-145.67;100.00;66521.78;5009854;28;20030;-73
2022/01/02 08:41:19;;;;;;;31.45;6.70;;;;;;;-145.67;100.00;66521.78;5000261;28;20034;-72
2022/01/02 08:43:46;;;;;;;31.77;7.15;;;;;;;-145.67;100.00;66521.78;4994695;28;20401;-74
2022/01/02 08:46:12;;;;;;;33.47;8.50;;;;;;;-145.67;100.00;66521.78;4995074;28;20569;-73
2022/01/02 08:48:37;;;;;;;28.35;7.60;;;;;;;-145.67;100.00;66521.78;4994051;28;20033;-73
2022/01/02 08:51:10;;;;;;;33.20;7.80;;;;;;;-145.67;100.00;66521.78;5000423;28;20112;-73
2022/01/02 08:53:39;;;;;;;33.33;7.97;;;;;;;-145.67;100.00;66521.78;4999684;28;20028;-73
2022/01/02 08:56:05;;;;;;;39.22;8.40;;;;;;;-145.67;100.00;66521.78;5009890;28;20383;-74
2022/01/02 08:58:35;;;;;;;35.63;8.52;;;;;;;-145.67;100.00;66521.78;4994672;28;20563;-73
2022/01/02 09:01:01;;;;;;;37.13;8.77;;;;;;;-145.67;100.00;66521.78;4994778;28;20048;-73
2022/01/02 09:03:27;;;;;;;34.80;9.32;;;;;;;-145.67;100.00;66521.78;4992548;28;20038;-73
2022/01/02 09:05:52;;;;;;;37.83;8.23;;;;;;;-145.67;100.00;66521.78;4994660;28;20029;-73
2022/01/02 09:08:18;;;;;;;36.55;9.05;;;;;;;-145.67;100.00;66521.78;4993664;28;20125;-74
2022/01/02 09:10:43;;;;;;;38.88;10.20;;;;;;;-145.67;100.00;66521.78;5004208;28;20029;-72
2022/01/02 09:13:09;;;;;;;40.65;9.55;;;;;;;-145.67;100.00;66521.78;4992578;28;20068;-72
2022/01/02 09:15:35;;;;;;;35.35;9.35;;;;;;;-145.67;100.00;66521.78;4994398;28;20064;-74
2022/01/02 09:18:05;;;;;;;36.72;9.43;;;;;;;-145.67;100.00;66521.78;4997522;28;20057;-72
2022/01/02 09:20:31;;;;;;;35.22;9.40;;;;;;;-145.67;100.00;66521.78;4994566;28;20095;-73
2022/01/02 09:22:58;;;;;;;34.58;8.93;;;;;;;-145.67;100.00;66521.78;4994553;28;20046;-74
2022/01/02 09:25:26;;;;;;;37.20;9.75;;;;;;;-145.67;100.00;66521.78;4996583;28;20092;-73
2022/01/02 09:27:52;;;;;;;37.90;9.82;;;;;;;-145.67;100.00;66521.78;4999086;28;20059;-73
2022/01/02 09:30:20;;;;;;;37.65;9.02;;;;;;;-145.67;100.00;66521.78;5013433;28;20030;-73
2022/01/02 09:32:45;;;;;;;40.20;8.98;;;;;;;-145.67;100.00;66521.78;4998141;28;20058;-73
2022/01/02 09:35:11;;;;;;;40.70;9.95;;;;;;;-145.67;100.00;66521.78;4996076;28;20117;-73
2022/01/02 09:37:37;;;;;;;41.95;10.75;;;;;;;-145.67;100.00;66521.78;4998167;28;21042;-73
2022/01/02 09:40:05;;;;;;;40.85;10.70;;;;;;;-145.67;100.00;66521.78;4997670;28;20052;-73
2022/01/02 09:42:31;;;;;;;40.17;10.40;;;;;;;-145.67;100.00;66521.78;5013004;28;20045;-73
2022/01/02 09:44:57;;;;;;;45.85;10.75;;;;;;;-145.67;100.00;66521.78;5003806;28;20065;-71
2022/01/02 09:47:23;;;;;;;33.80;10.15;;;;;;;-145.67;100.00;66521.78;5012830;28;20046;-74
2022/01/02 09:49:48;;;;;;;33.72;9.23;;;;;;;-145.67;100.00;66521.78;4997856;28;20049;-73
2022/01/02 09:52:14;;;;;;;42.28;9.77;;;;;;;-145.67;100.00;66521.78;5001107;28;20512;-72
2022/01/02 09:54:40;;;;;;;35.03;9.30;;;;;;;-145.67;100.00;66521.78;4997787;28;20034;-73
2022/01/02 09:57:05;;;;;;;37.60;9.13;;;;;;;-145.67;100.00;66521.78;5001601;28;20052;-73
2022/01/02 09:59:31;;;;;;;41.10;10.10;;;;;;;-145.67;100.00;66521.78;5012785;28;20128;-72
2022/01/02 10:01:59;;;;;;;36.67;10.38;;;;;;;-145.67;100.00;66521.78;4996318;28;20037;-73
2022/01/02 10:04:37;;;;;;;36.13;10.05;;;;;;;-145.67;100.00;66521.78;4997281;28;20037;-73
2022/01/02 10:07:04;;;;;;;39.42;9.70;;;;;;;-145.67;100.00;66521.78;4996334;28;20279;-73
2022/01/02 10:09:37;;;;;;;41.50;9.75;;;;;;;-145.67;100.00;66521.78;4996563;28;20065;-74
2022/01/02 10:12:20;;;;;;;44.67;9.70;;;;;;;-145.67;100.00;66521.78;4984869;28;20042;-73
2022/01/02 10:14:47;;;;;;;44.25;10.23;;;;;;;-145.67;100.00;66521.78;4995584;28;20341;-74
2022/01/02 10:17:18;;;;;;;46.50;9.70;;;;;;;-145.67;100.00;66521.78;4996452;28;20030;-73
2022/01/02 10:19:43;;;;;;;43.03;9.00;;;;;;;-145.67;100.00;66521.78;4996736;28;20041;-73
2022/01/02 10:22:11;;;;;;;49.25;10.07;;;;;;;-145.67;100.00;66521.78;4997830;28;20517;-73
2022/01/02 10:24:42;;;;;;;44.03;9.43;;;;;;;-145.67;100.00;66521.78;4996781;28;20519;-73
2022/01/02 10:27:17;;;;;;;57.10;10.82;;;;;;;-145.67;100.00;66521.78;4997877;28;20173;-73
2022/01/02 10:29:55;;;;;;;52.90;10.80;;;;;;;-145.67;100.00;66521.78;4996509;28;20087;-73
2022/01/02 10:32:34;;;;;;;47.47;10.10;;;;;;;-145.67;100.00;66521.78;5011992;28;20068;-73
2022/01/02 10:35:08;;;;;;;44.03;9.77;;;;;;;-145.67;100.00;66521.78;5011038;28;20030;-74
2022/01/02 10:37:36;;;;;;;45.72;9.52;;;;;;;-145.67;100.00;66521.78;4995845;28;20068;-73
2022/01/02 10:40:02;;;;;;;52.15;10.55;;;;;;;-145.67;100.00;66521.78;4997098;28;20086;-73
2022/01/02 10:42:30;;;;;;;55.25;11.57;;;;;;;-145.67;100.00;66521.78;5012213;28;20034;-73
2022/01/02 10:44:55;;;;;;;50.92;10.32;;;;;;;-145.67;100.00;66521.78;4979324;28;20053;-73
2022/01/02 10:47:26;;;;;;;56.30;10.55;;;;;;;-145.67;100.00;66521.78;5002851;28;20305;-73
2022/01/02 10:50:07;;;;;;;50.17;10.55;;;;;;;-145.67;100.00;66521.78;5002354;28;20045;-73
2022/01/02 10:52:45;;;;;;;54.20;10.88;;;;;;;-145.67;100.00;66521.78;4996539;28;20036;-73
2022/01/02 10:55:18;;;;;;;53.63;10.15;;;;;;;-145.67;100.00;66521.78;5007073;28;20033;-73
2022/01/02 10:57:47;;;;;;;59.30;10.98;;;;;;;-145.67;100.00;66521.78;5012225;28;20064;-73
2022/01/02 11:00:19;;;;;;;58.00;10.13;;;;;;;-145.67;100.00;66521.78;4997379;28;20047;-74
2022/01/02 11:02:47;;;;;;;61.67;10.77;;;;;;;-145.67;100.00;66521.78;5010609;28;20508;-74
2022/01/02 11:05:17;;;;;;;61.75;10.70;;;;;;;-145.67;100.00;66521.78;4993832;28;20157;-74
2022/01/02 11:07:44;;;;;;;69.22;11.60;;;;;;;-145.67;100.00;66521.78;4994842;28;20548;-74
2022/01/02 11:10:13;;;;;;;68.07;11.52;;;;;;;-145.67;100.00;66521.78;4996096;28;20076;-73
2022/01/02 11:12:40;;;;;;;62.25;10.60;;;;;;;-145.67;100.00;66521.78;4996339;28;20244;-74